Rockwell Springs, New York
Current Conditions -  °F | °C
As of 2:54 AM on Monday 22 Dec 2014 (Local Time) from KSYR Reporting Station
Overcast Overcast  
Wind Chill: 23°   Ceiling: 2300
Heat Index: 30°   Visibility: 10mi
Dew Point: 23°   Wind: 7mph
Humidity: 75%   Direction: 150°SSE
Pressure: 30.33"   Gusts: NA
Location:  42.9377°N, 76.1727°W
Report Text: KSYR 220754Z 15006KT 10SM OVC023 M01/M05 A3033 RMK AO2 SLP272 T10111050 $
Loading
Personal Weather Stations






























Interactive Weather Map New forecast layout! Learn more

10-Day Weather Forecast

Advertisements
Track Severe Weather on mobile